createdAt,value
2018-02-09T00:01:36.155Z,40.83
2018-02-09T00:04:04.423Z,46.67
2018-02-09T00:06:32.716Z,47.17
2018-02-09T00:09:01.007Z,40.47
2018-02-09T00:11:29.301Z,45.97
2018-02-09T00:13:57.704Z,46.63
2018-02-09T00:16:25.968Z,38.93
2018-02-09T00:18:54.250Z,39.30
2018-02-09T00:21:22.611Z,41.27
2018-02-09T00:23:50.987Z,46.40
2018-02-09T00:26:19.263Z,41.90
2018-02-09T00:28:47.537Z,39.27
2018-02-09T00:31:15.859Z,50.23
2018-02-09T00:33:45.018Z,50.63
2018-02-09T00:36:13.273Z,43.33
2018-02-09T00:38:41.556Z,38.13
2018-02-09T00:41:09.817Z,53.33
2018-02-09T00:43:38.100Z,46.07
2018-02-09T00:46:06.403Z,38.13
2018-02-09T00:48:34.781Z,45.37
2018-02-09T00:51:03.162Z,39.63
2018-02-09T00:53:31.411Z,45.97
2018-02-09T00:55:59.719Z,55.20
2018-02-09T00:58:27.992Z,48.80
2018-02-09T01:00:56.473Z,44.87
2018-02-09T01:03:24.723Z,42.80
2018-02-09T01:05:53.000Z,48.87
2018-02-09T01:08:21.289Z,50.90
2018-02-09T01:10:49.577Z,40.83
2018-02-09T01:13:17.843Z,43.77
2018-02-09T01:15:46.134Z,40.87
2018-02-09T01:18:14.440Z,46.83
2018-02-09T01:20:42.796Z,34.33
2018-02-09T01:23:11.076Z,41.20
2018-02-09T01:25:39.356Z,43.87
2018-02-09T01:28:07.625Z,44.90
2018-02-09T01:30:35.976Z,46.20
2018-02-09T01:33:04.231Z,42.60
2018-02-09T01:35:33.303Z,47.37
2018-02-09T01:38:01.574Z,45.20
2018-02-09T01:40:29.858Z,42.50
2018-02-09T01:42:58.119Z,40.90
2018-02-09T01:45:26.406Z,47.57
2018-02-09T01:47:54.684Z,47.87
2018-02-09T01:50:22.974Z,52.53
2018-02-09T01:52:51.236Z,43.67
2018-02-09T01:55:19.573Z,43.37
2018-02-09T01:57:48.598Z,44.23
2018-02-09T02:00:16.903Z,42.90
2018-02-09T02:02:45.173Z,46.37
2018-02-09T02:05:14.199Z,42.43
2018-02-09T02:07:42.483Z,41.43
2018-02-09T02:10:10.772Z,47.00
2018-02-09T02:12:39.168Z,43.33
2018-02-09T02:15:07.427Z,46.40
2018-02-09T02:17:35.721Z,53.63
2018-02-09T02:20:04.762Z,46.67
2018-02-09T02:22:33.039Z,43.30
2018-02-09T02:25:01.311Z,46.83
2018-02-09T02:27:29.617Z,43.07
2018-02-09T02:29:57.892Z,43.97
2018-02-09T02:32:26.180Z,45.50
2018-02-09T02:34:54.448Z,51.23
2018-02-09T02:37:22.735Z,42.37
2018-02-09T02:39:51.005Z,45.93
2018-02-09T02:42:19.308Z,40.70
2018-02-09T02:44:47.584Z,56.40
2018-02-09T02:47:15.882Z,47.40
2018-02-09T02:49:44.150Z,40.30
2018-02-09T02:52:12.724Z,49.23
2018-02-09T02:54:40.980Z,46.37
2018-02-09T02:57:09.240Z,53.37
2018-02-09T02:59:37.659Z,53.40
2018-02-09T03:02:06.048Z,49.50
2018-02-09T03:04:34.336Z,38.00
2018-02-09T03:07:02.613Z,48.43
2018-02-09T03:09:30.905Z,44.60
2018-02-09T03:11:59.944Z,48.97
2018-02-09T03:14:28.227Z,50.00
2018-02-09T03:16:56.519Z,47.63
2018-02-09T03:19:24.813Z,50.10
2018-02-09T03:21:53.326Z,40.27
2018-02-09T03:24:22.487Z,40.67
2018-02-09T03:26:50.750Z,55.93
2018-02-09T03:29:19.028Z,46.20
2018-02-09T03:31:47.293Z,43.43
2018-02-09T03:34:15.581Z,47.63
2018-02-09T03:36:43.845Z,56.10
2018-02-09T03:39:12.149Z,44.93
2018-02-09T03:41:40.424Z,54.17
2018-02-09T03:44:08.787Z,49.60
2018-02-09T03:46:37.081Z,47.57
2018-02-09T03:49:05.460Z,53.97
2018-02-09T03:51:33.748Z,43.03
2018-02-09T03:54:02.123Z,44.27
2018-02-09T03:56:30.413Z,47.90
2018-02-09T03:58:58.687Z,47.60
2018-02-09T04:01:26.988Z,50.93
2018-02-09T04:03:55.277Z,53.92
2018-02-09T04:06:23.585Z,54.50
2018-02-09T04:08:51.870Z,44.75
2018-02-09T04:11:20.171Z,45.97
2018-02-09T04:13:49.224Z,50.03
2018-02-09T04:16:17.524Z,44.95
2018-02-09T04:18:45.952Z,46.65
2018-02-09T04:21:14.244Z,49.22
2018-02-09T04:23:43.304Z,53.75
2018-02-09T04:26:11.609Z,55.47
2018-02-09T04:28:39.896Z,41.83
2018-02-09T04:31:08.372Z,38.80
2018-02-09T04:33:36.652Z,48.25
2018-02-09T04:36:05.715Z,57.65
2018-02-09T04:38:34.113Z,57.95
2018-02-09T04:41:02.400Z,53.92
2018-02-09T04:43:30.692Z,53.58
2018-02-09T04:45:59.768Z,40.95
2018-02-09T04:48:28.064Z,47.38
2018-02-09T04:50:57.151Z,50.83
2018-02-09T04:53:26.238Z,53.20
2018-02-09T04:55:54.523Z,44.35
2018-02-09T04:58:23.106Z,52.50
2018-02-09T05:00:51.527Z,47.13
2018-02-09T05:03:19.844Z,48.05
2018-02-09T05:05:48.124Z,40.92
2018-02-09T05:08:16.438Z,44.33
2018-02-09T05:10:45.491Z,46.50
2018-02-09T05:13:13.817Z,57.55
2018-02-09T05:15:42.983Z,46.80
2018-02-09T05:18:11.280Z,53.63
2018-02-09T05:20:40.335Z,55.08
2018-02-09T05:23:08.639Z,53.90
2018-02-09T05:25:36.928Z,46.42
2018-02-09T05:28:05.993Z,53.50
2018-02-09T05:30:34.292Z,48.80
2018-02-09T05:33:02.616Z,57.07
2018-02-09T05:35:30.892Z,48.23
2018-02-09T05:37:59.172Z,54.40
2018-02-09T05:40:27.544Z,66.17
2018-02-09T05:42:55.825Z,54.27
2018-02-09T05:45:24.128Z,52.20
2018-02-09T05:47:52.432Z,56.23
2018-02-09T05:50:20.848Z,49.37
2018-02-09T05:52:49.129Z,51.13
2018-02-09T05:55:17.488Z,58.83
2018-02-09T05:57:45.764Z,63.67
2018-02-09T06:00:14.161Z,60.13
2018-02-09T06:02:42.552Z,63.45
2018-02-09T06:05:10.924Z,56.90
2018-02-09T06:07:39.196Z,58.20
2018-02-09T06:10:07.576Z,58.03
2018-02-09T06:12:35.875Z,59.70
2018-02-09T06:15:04.236Z,55.95
2018-02-09T06:17:32.617Z,52.10
2018-02-09T06:20:00.938Z,60.97
2018-02-09T06:22:29.215Z,63.17
2018-02-09T06:24:57.535Z,70.62
2018-02-09T06:27:25.925Z,65.43
2018-02-09T06:29:54.208Z,66.05
2018-02-09T06:32:22.517Z,78.03
2018-02-09T06:34:51.564Z,65.03
2018-02-09T06:37:19.877Z,64.45
2018-02-09T06:39:48.912Z,60.73
2018-02-09T06:42:17.228Z,62.23
2018-02-09T06:44:45.505Z,76.87
2018-02-09T06:47:13.795Z,73.50
2018-02-09T06:49:42.209Z,63.23
2018-02-09T06:52:10.465Z,67.60
2018-02-09T06:54:39.535Z,64.93
2018-02-09T06:57:07.814Z,69.60
2018-02-09T06:59:36.104Z,69.80
2018-02-09T07:02:05.170Z,76.10
2018-02-09T07:04:33.466Z,65.00
2018-02-09T07:07:01.790Z,78.07
2018-02-09T07:09:30.068Z,71.27
2018-02-09T07:11:58.372Z,77.80
2018-02-09T07:14:26.655Z,66.97
2018-02-09T07:16:54.968Z,62.45
2018-02-09T07:19:23.255Z,60.73
2018-02-09T07:21:52.522Z,62.20
2018-02-09T07:24:20.873Z,53.42
2018-02-09T07:26:49.148Z,57.93
2018-02-09T07:29:17.458Z,66.57
2018-02-09T07:31:45.720Z,61.60
2018-02-09T07:34:14.037Z,52.07
2018-02-09T07:36:43.117Z,63.93
2018-02-09T07:39:11.412Z,57.10
2018-02-09T07:41:40.457Z,72.67
2018-02-09T07:44:08.755Z,50.50
2018-02-09T07:46:37.029Z,59.33
2018-02-09T07:49:05.364Z,63.03
2018-02-09T07:51:33.704Z,58.00
2018-02-09T07:54:01.988Z,69.70
2018-02-09T07:56:30.264Z,57.17
2018-02-09T07:58:58.590Z,67.03
2018-02-09T08:01:26.893Z,68.80
2018-02-09T08:03:55.188Z,57.50
2018-02-09T08:06:23.471Z,52.00
2018-02-09T08:08:51.776Z,53.37
2018-02-09T08:11:20.844Z,57.93
2018-02-09T08:13:49.099Z,58.83
2018-02-09T08:16:17.386Z,66.47
2018-02-09T08:18:45.653Z,56.07
2018-02-09T08:21:14.044Z,60.77
2018-02-09T08:23:42.320Z,62.90
2018-02-09T08:26:10.701Z,59.43
2018-02-09T08:28:38.956Z,54.50
2018-02-09T08:31:07.254Z,53.13
2018-02-09T08:33:35.736Z,59.67
2018-02-09T08:36:04.007Z,59.60
2018-02-09T08:38:32.272Z,56.20
2018-02-09T08:41:00.567Z,60.30
2018-02-09T08:43:28.845Z,58.53
2018-02-09T08:45:57.223Z,62.27
2018-02-09T08:48:25.491Z,58.00
2018-02-09T08:50:53.768Z,56.30
2018-02-09T08:53:22.037Z,59.33
2018-02-09T08:55:50.537Z,81.60
2018-02-09T08:58:18.824Z,62.23
2018-02-09T09:00:47.192Z,60.10
2018-02-09T09:03:15.486Z,69.60
2018-02-09T09:05:43.764Z,60.83
2018-02-09T09:08:12.056Z,57.90
2018-02-09T09:10:41.101Z,56.77
2018-02-09T09:13:09.411Z,54.57
2018-02-09T09:15:38.360Z,54.63
2018-02-09T09:18:06.653Z,59.03
2018-02-09T09:20:34.922Z,62.60
2018-02-09T09:23:03.200Z,60.07
2018-02-09T09:25:31.480Z,60.10
2018-02-09T09:27:59.774Z,62.80
2018-02-09T09:30:28.052Z,66.70
2018-02-09T09:32:56.345Z,63.90
2018-02-09T09:35:24.613Z,59.67
2018-02-09T09:37:52.905Z,60.87
2018-02-09T09:40:21.184Z,63.47
2018-02-09T09:42:49.468Z,59.20
2018-02-09T09:45:18.508Z,61.50
2018-02-09T09:47:46.796Z,58.17
2018-02-09T09:50:15.064Z,59.03
2018-02-09T09:52:43.377Z,58.07
2018-02-09T09:55:11.648Z,65.97
2018-02-09T09:57:39.925Z,66.97
2018-02-09T10:00:08.221Z,58.00
2018-02-09T10:02:40.405Z,67.07
2018-02-09T10:05:09.469Z,62.80
2018-02-09T10:07:37.844Z,59.13
2018-02-09T10:10:06.130Z,59.47
2018-02-09T10:12:34.412Z,63.20
2018-02-09T10:15:02.700Z,70.83
2018-02-09T10:17:31.746Z,64.17
2018-02-09T10:20:00.025Z,57.17
2018-02-09T10:22:28.297Z,76.33
2018-02-09T10:24:56.601Z,56.53
2018-02-09T10:27:24.893Z,71.97
2018-02-09T10:29:53.944Z,62.50
2018-02-09T10:32:22.224Z,68.57
2018-02-09T10:34:50.514Z,56.00
2018-02-09T10:37:18.907Z,66.07
2018-02-09T10:39:47.178Z,52.73
2018-02-09T10:42:15.444Z,62.97
2018-02-09T10:44:43.768Z,52.97
2018-02-09T10:47:12.809Z,51.13
2018-02-09T10:49:41.093Z,48.70
2018-02-09T10:52:09.371Z,50.10
2018-02-09T10:54:37.641Z,50.07
2018-02-09T10:57:05.929Z,41.80
2018-02-09T10:59:34.200Z,40.53
2018-02-09T11:02:02.487Z,41.10
2018-02-09T11:04:30.777Z,50.90
2018-02-09T11:06:59.257Z,47.87
2018-02-09T11:09:31.542Z,47.53
2018-02-09T11:12:01.612Z,50.30
2018-02-09T11:14:29.888Z,41.37
2018-02-09T11:16:58.171Z,46.10
2018-02-09T11:19:26.477Z,42.30
2018-02-09T11:21:54.755Z,38.40
2018-02-09T11:24:23.017Z,43.43
2018-02-09T11:26:51.321Z,46.97
2018-02-09T11:29:19.712Z,48.23
2018-02-09T11:31:48.005Z,50.47
2018-02-09T11:34:16.381Z,44.77
2018-02-09T11:36:44.668Z,50.80
2018-02-09T11:39:12.948Z,37.50
2018-02-09T11:41:42.038Z,40.07
2018-02-09T11:44:10.300Z,41.20
2018-02-09T11:46:38.593Z,42.40
2018-02-09T11:49:07.644Z,39.60
2018-02-09T11:51:35.947Z,38.80
2018-02-09T11:54:04.196Z,44.30
2018-02-09T11:56:32.545Z,43.90
2018-02-09T11:59:00.791Z,40.73
2018-02-09T12:01:29.081Z,43.17
2018-02-09T12:03:58.163Z,39.43
2018-02-09T12:06:26.433Z,41.57
2018-02-09T12:08:54.726Z,37.87
2018-02-09T12:11:23.011Z,42.30
2018-02-09T12:13:51.372Z,42.30
2018-02-09T12:16:19.751Z,47.00
2018-02-09T12:18:48.041Z,37.23
2018-02-09T12:21:17.117Z,41.23
2018-02-09T12:23:45.524Z,39.07
2018-02-09T12:26:14.700Z,34.97
2018-02-09T12:28:42.989Z,42.03
2018-02-09T12:31:11.350Z,43.77
2018-02-09T12:33:39.628Z,43.50
2018-02-09T12:36:08.025Z,47.57
2018-02-09T12:38:37.079Z,48.33
2018-02-09T12:41:05.356Z,45.33
2018-02-09T12:43:33.763Z,42.00
2018-02-09T12:46:02.042Z,39.47
2018-02-09T12:48:30.314Z,51.50
2018-02-09T12:50:58.658Z,40.60
2018-02-09T12:53:26.976Z,50.40
2018-02-09T12:55:55.265Z,46.50
2018-02-09T12:58:25.040Z,46.83
2018-02-09T13:00:53.335Z,36.90
2018-02-09T13:03:21.629Z,45.30
2018-02-09T13:05:49.973Z,42.97
2018-02-09T13:08:18.244Z,41.67
2018-02-09T13:10:46.531Z,40.20
2018-02-09T13:13:14.816Z,40.90
2018-02-09T13:15:43.105Z,53.33
2018-02-09T13:18:23.208Z,48.73
2018-02-09T13:20:51.476Z,51.93
2018-02-09T13:23:32.418Z,43.83
2018-02-09T13:26:00.688Z,51.57
2018-02-09T13:28:40.784Z,46.20
2018-02-09T13:31:09.060Z,46.90
2018-02-09T13:33:38.220Z,41.40
2018-02-09T13:36:06.475Z,46.93
2018-02-09T13:38:34.879Z,51.17
2018-02-09T13:41:03.136Z,49.47
2018-02-09T13:43:31.437Z,50.97
2018-02-09T13:45:59.909Z,54.03
2018-02-09T13:48:28.341Z,48.93
2018-02-09T13:50:57.380Z,47.90
2018-02-09T13:53:25.686Z,46.43
2018-02-09T13:55:54.742Z,45.83
2018-02-09T13:58:23.004Z,57.90
2018-02-09T14:00:51.298Z,42.63
2018-02-09T14:03:19.585Z,48.87
2018-02-09T14:05:47.881Z,41.50
2018-02-09T14:08:16.349Z,49.27
2018-02-09T14:10:44.644Z,48.23
2018-02-09T14:13:12.916Z,52.87
2018-02-09T14:15:41.284Z,48.27
2018-02-09T14:18:09.553Z,52.17
2018-02-09T14:20:37.867Z,47.67
2018-02-09T14:23:06.133Z,48.40
2018-02-09T14:25:34.416Z,48.57
2018-02-09T14:28:03.456Z,57.83
2018-02-09T14:30:31.740Z,72.90
2018-02-09T14:33:00.025Z,56.73
2018-02-09T14:35:29.313Z,56.97
2018-02-09T14:37:57.588Z,51.47
2018-02-09T14:40:25.998Z,58.30
2018-02-09T14:42:54.275Z,55.73
2018-02-09T14:45:22.553Z,58.60
2018-02-09T14:47:50.933Z,59.33
2018-02-09T14:50:19.231Z,58.23
2018-02-09T14:52:47.693Z,60.23
2018-02-09T14:55:15.964Z,59.57
2018-02-09T14:57:44.256Z,58.40
2018-02-09T15:00:14.041Z,56.40
2018-02-09T15:02:42.446Z,63.50
2018-02-09T15:05:10.725Z,56.60
2018-02-09T15:07:39.054Z,66.23
2018-02-09T15:10:07.317Z,54.47
2018-02-09T15:12:35.750Z,63.37
2018-02-09T15:15:04.004Z,59.77
2018-02-09T15:17:32.272Z,61.60
2018-02-09T15:20:00.564Z,56.97
2018-02-09T15:22:28.836Z,52.70
2018-02-09T15:24:57.240Z,59.70
2018-02-09T15:27:25.493Z,57.20
2018-02-09T15:29:53.775Z,64.50
2018-02-09T15:32:22.665Z,62.47
2018-02-09T15:34:50.967Z,61.97
2018-02-09T15:37:19.233Z,71.17
2018-02-09T15:39:47.732Z,66.43
2018-02-09T15:42:16.114Z,63.20
2018-02-09T15:44:46.015Z,59.47
2018-02-09T15:47:14.316Z,47.70
2018-02-09T15:49:42.587Z,56.73
2018-02-09T15:52:11.662Z,61.60
2018-02-09T15:54:39.940Z,64.50
2018-02-09T15:57:08.217Z,62.67
2018-02-09T15:59:36.508Z,62.33
2018-02-09T16:02:04.876Z,58.67
2018-02-09T16:04:33.165Z,74.40
2018-02-09T16:07:01.441Z,71.20
2018-02-09T16:09:29.711Z,73.40
2018-02-09T16:11:58.003Z,76.43
2018-02-09T16:14:27.052Z,60.93
2018-02-09T16:16:55.356Z,60.67
2018-02-09T16:19:24.390Z,65.30
2018-02-09T16:21:52.682Z,72.23
2018-02-09T16:24:20.944Z,62.93
2018-02-09T16:26:49.243Z,58.93
2018-02-09T16:29:17.504Z,72.37
2018-02-09T16:31:45.803Z,76.03
2018-02-09T16:34:14.085Z,64.50
2018-02-09T16:36:42.476Z,68.93
2018-02-09T16:39:10.780Z,63.10
2018-02-09T16:41:39.941Z,68.37
2018-02-09T16:44:08.321Z,62.43
2018-02-09T16:46:36.588Z,68.77
2018-02-09T16:49:04.977Z,55.00
2018-02-09T16:51:33.254Z,74.83
2018-02-09T16:54:01.549Z,73.30
2018-02-09T16:56:29.824Z,80.80
2018-02-09T16:58:58.129Z,69.87
2018-02-09T17:01:27.190Z,62.90
2018-02-09T17:03:55.480Z,73.37
2018-02-09T17:06:23.765Z,59.27
2018-02-09T17:08:52.222Z,77.10
2018-02-09T17:11:20.483Z,61.70
2018-02-09T17:13:48.769Z,64.87
2018-02-09T17:16:17.074Z,70.13
2018-02-09T17:18:45.356Z,64.87
2018-02-09T17:21:14.420Z,67.40
2018-02-09T17:23:42.689Z,70.23
2018-02-09T17:26:10.988Z,70.40
2018-02-09T17:28:39.383Z,64.90
2018-02-09T17:31:07.672Z,69.77
2018-02-09T17:33:36.703Z,67.67
2018-02-09T17:36:05.054Z,66.43
2018-02-09T17:38:33.389Z,64.70
2018-02-09T17:41:01.685Z,63.37
2018-02-09T17:43:30.041Z,56.77
2018-02-09T17:45:58.425Z,60.37
2018-02-09T17:48:26.738Z,65.10
2018-02-09T17:50:55.783Z,53.67
2018-02-09T17:53:24.061Z,60.20
2018-02-09T17:55:52.456Z,67.23
2018-02-09T17:58:20.720Z,62.67
2018-02-09T18:00:49.111Z,63.63
2018-02-09T18:03:17.377Z,65.73
2018-02-09T18:05:45.668Z,69.57
2018-02-09T18:08:13.933Z,81.90
2018-02-09T18:10:42.217Z,72.63
2018-02-09T18:13:10.475Z,69.00
2018-02-09T18:15:38.754Z,65.50
2018-02-09T18:18:07.037Z,61.97
2018-02-09T18:20:35.358Z,57.47
2018-02-09T18:23:03.609Z,70.90
2018-02-09T18:25:31.948Z,85.53
2018-02-09T18:28:00.176Z,78.47
2018-02-09T18:30:29.255Z,83.13
2018-02-09T18:32:57.560Z,65.60
2018-02-09T18:35:26.607Z,59.40
2018-02-09T18:37:54.897Z,60.03
2018-02-09T18:40:23.173Z,86.37
2018-02-09T18:42:51.604Z,59.83
2018-02-09T18:45:19.849Z,68.07
2018-02-09T18:47:48.212Z,67.60
2018-02-09T18:50:16.484Z,81.93
2018-02-09T18:52:44.779Z,72.67
2018-02-09T18:55:13.033Z,68.70
2018-02-09T18:57:41.320Z,62.93
2018-02-09T19:00:09.583Z,68.03
2018-02-09T19:02:37.883Z,61.27
2018-02-09T19:05:06.175Z,71.87
2018-02-09T19:07:34.457Z,71.10
2018-02-09T19:10:02.743Z,67.40
2018-02-09T19:12:31.811Z,62.97
2018-02-09T19:15:00.185Z,68.40
2018-02-09T19:17:28.451Z,66.10
2018-02-09T19:19:56.744Z,63.40
2018-02-09T19:22:25.007Z,76.97
2018-02-09T19:24:53.296Z,75.40
2018-02-09T19:27:21.568Z,72.87
2018-02-09T19:29:49.851Z,68.53
2018-02-09T19:32:18.111Z,68.70
2018-02-09T19:34:46.508Z,62.93
2018-02-09T19:37:14.795Z,67.93
2018-02-09T19:39:43.084Z,68.83
2018-02-09T19:42:11.351Z,69.27
2018-02-09T19:44:39.644Z,77.17
2018-02-09T19:47:08.691Z,74.27
2018-02-09T19:49:37.693Z,72.40
2018-02-09T19:52:06.006Z,66.73
2018-02-09T19:54:34.387Z,66.17
2018-02-09T19:57:03.437Z,62.20
2018-02-09T19:59:31.696Z,78.70
2018-02-09T20:01:59.984Z,69.57
2018-02-09T20:04:28.260Z,68.43
2018-02-09T20:06:56.539Z,77.33
2018-02-09T20:09:24.815Z,70.20
2018-02-09T20:11:53.157Z,69.90
2018-02-09T20:14:22.192Z,72.90
2018-02-09T20:16:50.481Z,65.43
2018-02-09T20:19:18.758Z,64.63
2018-02-09T20:21:47.068Z,83.17
2018-02-09T20:24:16.104Z,77.57
2018-02-09T20:26:44.379Z,77.07
2018-02-09T20:29:12.667Z,67.73
2018-02-09T20:31:40.931Z,77.83
2018-02-09T20:34:10.100Z,77.63
2018-02-09T20:36:39.141Z,92.67
2018-02-09T20:39:07.419Z,65.17
2018-02-09T20:41:35.695Z,76.40
2018-02-09T20:44:04.006Z,64.20
2018-02-09T20:46:32.275Z,64.33
2018-02-09T20:49:00.774Z,73.13
2018-02-09T20:51:29.063Z,72.37
2018-02-09T20:53:58.124Z,88.90
2018-02-09T20:56:26.510Z,70.30
2018-02-09T20:58:54.801Z,83.63
2018-02-09T21:01:23.067Z,85.13
2018-02-09T21:03:51.345Z,78.70
2018-02-09T21:06:19.621Z,77.10
2018-02-09T21:08:47.909Z,76.67
2018-02-09T21:11:16.274Z,88.33
2018-02-09T21:13:44.551Z,72.00
2018-02-09T21:16:12.835Z,69.70
2018-02-09T21:18:41.105Z,82.33
2018-02-09T21:21:09.398Z,75.47
2018-02-09T21:23:37.665Z,71.93
2018-02-09T21:26:05.940Z,87.63
2018-02-09T21:28:34.215Z,66.47
2018-02-09T21:31:02.497Z,70.10
2018-02-09T21:33:30.768Z,69.10
2018-02-09T21:35:59.046Z,68.80
2018-02-09T21:38:27.944Z,72.40
2018-02-09T21:40:56.280Z,84.50
2018-02-09T21:43:24.533Z,77.87
2018-02-09T21:45:53.560Z,81.07
2018-02-09T21:48:21.873Z,80.57
2018-02-09T21:50:50.151Z,85.20
2018-02-09T21:53:18.456Z,74.77
2018-02-09T21:55:47.491Z,72.00
2018-02-09T21:58:15.788Z,72.73
2018-02-09T22:00:44.074Z,69.33
2018-02-09T22:03:12.373Z,84.23
2018-02-09T22:05:40.727Z,70.70
2018-02-09T22:08:09.104Z,75.93
2018-02-09T22:10:37.368Z,77.53
2018-02-09T22:13:05.670Z,87.83
2018-02-09T22:15:33.934Z,91.27
2018-02-09T22:18:02.240Z,81.17
2018-02-09T22:20:30.510Z,83.90
2018-02-09T22:22:58.828Z,82.10
2018-02-09T22:25:27.839Z,76.83
2018-02-09T22:27:56.119Z,90.33
2018-02-09T22:30:24.451Z,88.93
2018-02-09T22:32:52.697Z,74.73
2018-02-09T22:35:21.079Z,81.47
2018-02-09T22:37:49.336Z,78.70
2018-02-09T22:40:17.612Z,85.03
2018-02-09T22:42:45.884Z,76.23
2018-02-09T22:45:14.163Z,76.87
2018-02-09T22:47:42.460Z,85.73
2018-02-09T22:50:10.731Z,77.27
2018-02-09T22:52:38.995Z,70.63
2018-02-09T22:55:07.401Z,78.27
2018-02-09T22:57:35.671Z,79.47
2018-02-09T23:00:03.952Z,84.27
2018-02-09T23:02:32.231Z,74.10
2018-02-09T23:05:00.551Z,84.23
2018-02-09T23:07:29.584Z,75.57
2018-02-09T23:09:57.860Z,80.07
2018-02-09T23:12:26.134Z,79.10
2018-02-09T23:14:54.407Z,81.20
2018-02-09T23:17:22.691Z,77.97
2018-02-09T23:19:50.973Z,80.40
2018-02-09T23:22:19.617Z,85.70
2018-02-09T23:24:48.077Z,77.50
2018-02-09T23:27:16.340Z,94.23
2018-02-09T23:29:45.260Z,91.77
2018-02-09T23:32:13.543Z,80.83
2018-02-09T23:34:41.919Z,85.70
2018-02-09T23:37:10.285Z,91.27
2018-02-09T23:39:38.536Z,89.90
2018-02-09T23:42:06.817Z,80.93
2018-02-09T23:44:35.080Z,84.73
2018-02-09T23:47:03.360Z,88.17
2018-02-09T23:49:31.623Z,88.40
2018-02-09T23:52:00.656Z,76.93
2018-02-09T23:54:28.939Z,86.27
2018-02-09T23:56:57.211Z,87.60
2018-02-09T23:59:25.511Z,80.53
